createdAt,value
2018-02-07T00:02:20.508Z,44.03
2018-02-07T00:04:47.998Z,39.27
2018-02-07T00:07:15.486Z,36.27
2018-02-07T00:09:42.948Z,46.10
2018-02-07T00:12:10.436Z,35.27
2018-02-07T00:14:37.912Z,37.07
2018-02-07T00:17:05.395Z,43.40
2018-02-07T00:19:32.857Z,40.40
2018-02-07T00:22:00.338Z,45.90
2018-02-07T00:24:27.846Z,43.77
2018-02-07T00:26:55.339Z,43.90
2018-02-07T00:29:22.813Z,38.60
2018-02-07T00:31:50.297Z,42.00
2018-02-07T00:34:18.521Z,42.13
2018-02-07T00:36:46.019Z,44.37
2018-02-07T00:39:14.245Z,42.40
2018-02-07T00:41:41.717Z,41.30
2018-02-07T00:44:09.186Z,41.67
2018-02-07T00:46:36.670Z,40.13
2018-02-07T00:49:04.898Z,42.07
2018-02-07T00:51:33.681Z,40.53
2018-02-07T00:54:01.133Z,40.50
2018-02-07T00:56:28.616Z,46.70
2018-02-07T00:58:56.137Z,40.10
2018-02-07T01:01:25.035Z,42.90
2018-02-07T01:03:52.554Z,42.23
2018-02-07T01:06:20.037Z,36.17
2018-02-07T01:08:48.427Z,45.53
2018-02-07T01:11:17.049Z,38.23
2018-02-07T01:13:45.417Z,42.77
2018-02-07T01:16:15.514Z,43.47
2018-02-07T01:18:44.957Z,43.60
2018-02-07T01:21:20.179Z,41.00
2018-02-07T01:23:48.534Z,42.83
2018-02-07T01:26:18.249Z,39.60
2018-02-07T01:28:48.259Z,36.63
2018-02-07T01:31:16.513Z,42.00
2018-02-07T01:33:47.594Z,43.67
2018-02-07T01:36:17.952Z,37.93
2018-02-07T01:38:46.201Z,38.50
2018-02-07T01:41:16.614Z,39.20
2018-02-07T01:43:45.627Z,37.83
2018-02-07T01:46:14.937Z,39.80
2018-02-07T01:48:42.468Z,45.47
2018-02-07T01:51:09.942Z,44.17
2018-02-07T01:53:37.405Z,42.30
2018-02-07T01:56:04.892Z,43.00
2018-02-07T01:58:32.359Z,41.47
2018-02-07T02:01:00.606Z,42.13
2018-02-07T02:03:28.087Z,40.80
2018-02-07T02:05:56.393Z,36.70
2018-02-07T02:08:24.627Z,40.77
2018-02-07T02:10:52.093Z,36.50
2018-02-07T02:13:28.249Z,40.67
2018-02-07T02:15:55.834Z,43.77
2018-02-07T02:18:24.065Z,39.70
2018-02-07T02:20:51.542Z,34.60
2018-02-07T02:23:19.034Z,41.77
2018-02-07T02:25:47.270Z,38.97
2018-02-07T02:28:14.761Z,36.57
2018-02-07T02:30:43.011Z,35.63
2018-02-07T02:33:10.490Z,35.93
2018-02-07T02:35:37.984Z,42.27
2018-02-07T02:38:05.459Z,37.80
2018-02-07T02:40:32.934Z,32.80
2018-02-07T02:43:00.456Z,33.57
2018-02-07T02:45:27.930Z,35.30
2018-02-07T02:47:55.439Z,38.10
2018-02-07T02:50:25.473Z,37.90
2018-02-07T02:52:53.706Z,42.07
2018-02-07T02:55:21.178Z,36.63
2018-02-07T02:57:48.703Z,35.80
2018-02-07T03:00:16.892Z,35.93
2018-02-07T03:02:44.398Z,32.67
2018-02-07T03:05:12.650Z,37.77
2018-02-07T03:07:40.125Z,38.40
2018-02-07T03:10:08.371Z,37.10
2018-02-07T03:12:36.624Z,40.10
2018-02-07T03:15:04.082Z,39.00
2018-02-07T03:17:31.566Z,37.77
2018-02-07T03:19:59.050Z,36.60
2018-02-07T03:22:26.514Z,35.90
2018-02-07T03:24:54.755Z,37.70
2018-02-07T03:27:22.649Z,37.83
2018-02-07T03:29:50.915Z,37.50
2018-02-07T03:32:18.394Z,36.85
2018-02-07T03:34:46.641Z,39.60
2018-02-07T03:37:14.121Z,32.73
2018-02-07T03:39:42.365Z,39.33
2018-02-07T03:42:09.850Z,36.70
2018-02-07T03:44:37.310Z,38.10
2018-02-07T03:47:04.810Z,34.67
2018-02-07T03:49:32.278Z,33.20
2018-02-07T03:51:59.759Z,31.73
2018-02-07T03:54:27.240Z,36.03
2018-02-07T03:56:54.731Z,33.47
2018-02-07T03:59:22.232Z,34.27
2018-02-07T04:01:49.714Z,32.23
2018-02-07T04:04:17.188Z,32.00
2018-02-07T04:06:45.431Z,33.57
2018-02-07T04:09:12.899Z,32.87
2018-02-07T04:11:40.373Z,30.70
2018-02-07T04:14:08.620Z,38.30
2018-02-07T04:16:36.102Z,42.10
2018-02-07T04:19:03.583Z,34.33
2018-02-07T04:21:31.100Z,33.77
2018-02-07T04:23:58.582Z,30.57
2018-02-07T04:26:26.823Z,36.13
2018-02-07T04:28:54.296Z,42.93
2018-02-07T04:31:21.791Z,34.97
2018-02-07T04:33:50.040Z,40.47
2018-02-07T04:36:17.520Z,43.30
2018-02-07T04:38:45.778Z,39.70
2018-02-07T04:41:13.267Z,37.63
2018-02-07T04:43:40.763Z,33.63
2018-02-07T04:46:08.227Z,35.13
2018-02-07T04:48:35.706Z,38.00
2018-02-07T04:51:03.183Z,35.70
2018-02-07T04:53:31.432Z,33.43
2018-02-07T04:55:58.904Z,34.43
2018-02-07T04:58:26.378Z,37.70
2018-02-07T05:00:54.603Z,36.90
2018-02-07T05:03:22.078Z,32.27
2018-02-07T05:05:49.557Z,35.17
2018-02-07T05:08:17.826Z,34.20
2018-02-07T05:10:45.296Z,34.93
2018-02-07T05:13:13.538Z,30.77
2018-02-07T05:15:41.023Z,33.50
2018-02-07T05:18:08.520Z,35.30
2018-02-07T05:20:35.990Z,32.73
2018-02-07T05:23:03.471Z,35.47
2018-02-07T05:25:30.941Z,36.33
2018-02-07T05:27:58.405Z,41.23
2018-02-07T05:30:25.895Z,34.80
2018-02-07T05:32:54.160Z,37.10
2018-02-07T05:35:22.405Z,30.87
2018-02-07T05:37:49.877Z,30.10
2018-02-07T05:40:17.355Z,34.80
2018-02-07T05:42:45.623Z,37.40
2018-02-07T05:45:13.879Z,34.00
2018-02-07T05:47:41.364Z,37.37
2018-02-07T05:50:09.943Z,32.20
2018-02-07T05:52:38.211Z,34.70
2018-02-07T05:55:05.699Z,35.23
2018-02-07T05:57:33.948Z,36.50
2018-02-07T06:00:01.418Z,40.93
2018-02-07T06:02:30.639Z,38.77
2018-02-07T06:04:58.102Z,35.90
2018-02-07T06:07:25.594Z,32.70
2018-02-07T06:09:53.074Z,37.93
2018-02-07T06:12:21.532Z,32.60
2018-02-07T06:14:49.017Z,35.03
2018-02-07T06:17:16.516Z,33.20
2018-02-07T06:19:44.004Z,33.90
2018-02-07T06:22:12.238Z,31.53
2018-02-07T06:24:39.730Z,37.80
2018-02-07T06:27:07.202Z,34.43
2018-02-07T06:29:34.709Z,31.77
2018-02-07T06:32:02.948Z,38.57
2018-02-07T06:34:30.451Z,33.90
2018-02-07T06:36:58.687Z,38.90
2018-02-07T06:39:27.108Z,32.17
2018-02-07T06:41:55.354Z,34.07
2018-02-07T06:44:22.830Z,32.53
2018-02-07T06:46:51.064Z,34.40
2018-02-07T06:49:18.551Z,32.70
2018-02-07T06:51:46.010Z,39.40
2018-02-07T06:54:14.258Z,34.33
2018-02-07T06:56:41.751Z,34.33
2018-02-07T06:59:10.020Z,36.10
2018-02-07T07:01:37.488Z,32.73
2018-02-07T07:04:05.742Z,38.67
2018-02-07T07:06:33.223Z,37.97
2018-02-07T07:09:01.483Z,33.97
2018-02-07T07:11:28.955Z,28.97
2018-02-07T07:13:57.206Z,33.00
2018-02-07T07:16:24.673Z,30.17
2018-02-07T07:18:52.149Z,37.83
2018-02-07T07:21:20.391Z,32.37
2018-02-07T07:23:47.879Z,37.17
2018-02-07T07:26:16.131Z,38.53
2018-02-07T07:28:43.603Z,42.90
2018-02-07T07:31:11.088Z,35.67
2018-02-07T07:33:39.339Z,36.80
2018-02-07T07:36:06.825Z,33.80
2018-02-07T07:38:34.329Z,33.37
2018-02-07T07:41:01.832Z,32.63
2018-02-07T07:43:30.078Z,33.30
2018-02-07T07:45:57.556Z,36.77
2018-02-07T07:48:25.027Z,39.50
2018-02-07T07:50:53.270Z,35.80
2018-02-07T07:53:20.776Z,35.63
2018-02-07T07:55:50.373Z,32.20
2018-02-07T07:58:17.893Z,32.90
2018-02-07T08:00:47.961Z,32.63
2018-02-07T08:03:21.871Z,32.40
2018-02-07T08:05:49.357Z,31.53
2018-02-07T08:08:16.841Z,34.73
2018-02-07T08:10:44.322Z,35.70
2018-02-07T08:13:12.568Z,31.83
2018-02-07T08:15:40.052Z,29.10
2018-02-07T08:18:08.298Z,30.90
2018-02-07T08:20:35.777Z,32.50
2018-02-07T08:23:03.263Z,32.43
2018-02-07T08:25:30.747Z,33.40
2018-02-07T08:27:59.127Z,34.20
2018-02-07T08:30:26.703Z,28.57
2018-02-07T08:32:56.944Z,31.30
2018-02-07T08:35:28.082Z,29.03
2018-02-07T08:37:55.584Z,34.07
2018-02-07T08:40:23.946Z,35.03
2018-02-07T08:42:53.669Z,34.83
2018-02-07T08:45:22.398Z,31.23
2018-02-07T08:47:50.305Z,33.37
2018-02-07T08:50:20.279Z,29.93
2018-02-07T08:52:47.891Z,36.63
2018-02-07T08:55:16.151Z,31.43
2018-02-07T08:57:43.668Z,31.77
2018-02-07T09:00:15.622Z,26.00
2018-02-07T09:02:44.218Z,29.37
2018-02-07T09:05:16.574Z,31.23
2018-02-07T09:07:44.045Z,28.03
2018-02-07T09:10:11.540Z,30.73
2018-02-07T09:12:39.010Z,28.60
2018-02-07T09:15:06.499Z,29.73
2018-02-07T09:17:35.970Z,26.73
2018-02-07T09:20:03.454Z,27.20
2018-02-07T09:22:31.700Z,29.80
2018-02-07T09:24:59.175Z,25.57
2018-02-07T09:27:26.651Z,26.43
2018-02-07T09:29:54.152Z,28.47
2018-02-07T09:32:21.623Z,28.73
2018-02-07T09:34:49.119Z,26.03
2018-02-07T09:37:16.927Z,26.83
2018-02-07T09:39:44.402Z,24.10
2018-02-07T09:42:11.891Z,26.33
2018-02-07T09:44:39.378Z,23.23
2018-02-07T09:47:07.634Z,27.10
2018-02-07T09:49:35.877Z,24.57
2018-02-07T09:52:03.359Z,27.77
2018-02-07T09:54:30.839Z,26.80
2018-02-07T09:56:58.730Z,25.10
2018-02-07T09:59:26.207Z,26.60
2018-02-07T10:01:53.683Z,24.57
2018-02-07T10:04:21.177Z,23.67
2018-02-07T10:06:49.414Z,25.33
2018-02-07T10:09:16.924Z,25.27
2018-02-07T10:11:44.570Z,25.47
2018-02-07T10:14:12.296Z,28.07
2018-02-07T10:16:39.766Z,26.50
2018-02-07T10:19:07.251Z,24.77
2018-02-07T10:21:35.492Z,25.23
2018-02-07T10:24:02.976Z,23.47
2018-02-07T10:26:32.753Z,22.97
2018-02-07T10:29:01.878Z,33.27
2018-02-07T10:31:29.369Z,29.50
2018-02-07T10:33:56.846Z,27.67
2018-02-07T10:36:24.327Z,24.90
2018-02-07T10:38:51.805Z,32.90
2018-02-07T10:41:19.283Z,27.83
2018-02-07T10:43:47.528Z,23.83
2018-02-07T10:46:15.000Z,23.57
2018-02-07T10:48:42.488Z,28.33
2018-02-07T10:51:10.731Z,24.13
2018-02-07T10:53:38.199Z,29.27
2018-02-07T10:56:05.690Z,24.70
2018-02-07T10:58:33.142Z,25.03
2018-02-07T11:01:00.621Z,25.80
2018-02-07T11:03:28.091Z,26.07
2018-02-07T11:05:55.566Z,22.80
2018-02-07T11:08:23.799Z,25.53
2018-02-07T11:10:51.290Z,26.67
2018-02-07T11:13:18.755Z,28.00
2018-02-07T11:15:46.248Z,28.00
2018-02-07T11:18:14.482Z,26.90
2018-02-07T11:20:41.964Z,26.63
2018-02-07T11:23:09.442Z,25.33
2018-02-07T11:25:37.685Z,26.57
2018-02-07T11:28:05.158Z,26.37
2018-02-07T11:30:32.628Z,26.60
2018-02-07T11:33:00.651Z,27.57
2018-02-07T11:35:28.122Z,23.80
2018-02-07T11:37:56.036Z,24.77
2018-02-07T11:40:23.550Z,26.43
2018-02-07T11:42:51.037Z,28.23
2018-02-07T11:45:18.519Z,26.87
2018-02-07T11:47:46.001Z,22.63
2018-02-07T11:50:13.485Z,25.37
2018-02-07T11:52:40.954Z,27.43
2018-02-07T11:55:08.444Z,24.70
2018-02-07T11:57:36.704Z,29.17
2018-02-07T12:00:04.208Z,28.77
2018-02-07T12:02:31.675Z,25.00
2018-02-07T12:04:59.182Z,28.10
2018-02-07T12:07:26.646Z,26.67
2018-02-07T12:09:54.914Z,29.60
2018-02-07T12:12:22.373Z,28.10
2018-02-07T12:14:49.855Z,47.27
2018-02-07T12:17:18.098Z,25.80
2018-02-07T12:19:45.582Z,30.63
2018-02-07T12:22:13.076Z,23.87
2018-02-07T12:24:40.565Z,22.70
2018-02-07T12:27:08.094Z,28.37
2018-02-07T12:29:36.556Z,27.67
2018-02-07T12:32:04.027Z,35.67
2018-02-07T12:34:31.488Z,28.63
2018-02-07T12:36:58.980Z,24.10
2018-02-07T12:39:26.452Z,29.80
2018-02-07T12:41:53.939Z,29.03
2018-02-07T12:44:22.182Z,29.70
2018-02-07T12:46:49.705Z,37.40
2018-02-07T12:49:17.147Z,29.70
2018-02-07T12:51:44.627Z,28.30
2018-02-07T12:54:12.084Z,34.40
2018-02-07T12:56:39.575Z,30.37
2018-02-07T12:59:07.048Z,34.00
2018-02-07T13:01:35.285Z,28.50
2018-02-07T13:04:02.759Z,32.47
2018-02-07T13:06:30.253Z,34.47
2018-02-07T13:08:59.311Z,32.50
2018-02-07T13:11:26.864Z,31.30
2018-02-07T13:13:54.339Z,32.50
2018-02-07T13:16:21.837Z,44.90
2018-02-07T13:18:50.071Z,31.07
2018-02-07T13:21:17.551Z,30.83
2018-02-07T13:23:45.803Z,30.23
2018-02-07T13:26:13.293Z,26.47
2018-02-07T13:28:41.537Z,35.03
2018-02-07T13:31:09.007Z,26.77
2018-02-07T13:33:36.513Z,28.43
2018-02-07T13:36:03.984Z,31.93
2018-02-07T13:38:31.492Z,33.80
2018-02-07T13:40:58.954Z,30.90
2018-02-07T13:43:27.197Z,31.20
2018-02-07T13:45:54.676Z,32.23
2018-02-07T13:48:22.147Z,40.17
2018-02-07T13:50:50.427Z,32.10
2018-02-07T13:53:18.663Z,30.97
2018-02-07T13:55:46.140Z,31.73
2018-02-07T13:58:13.634Z,31.70
2018-02-07T14:00:46.755Z,34.50
2018-02-07T14:03:14.237Z,29.40
2018-02-07T14:05:41.736Z,34.47
2018-02-07T14:08:09.975Z,32.13
2018-02-07T14:10:37.464Z,35.10
2018-02-07T14:13:05.737Z,42.77
2018-02-07T14:15:33.328Z,31.37
2018-02-07T14:18:00.803Z,31.10
2018-02-07T14:20:28.282Z,37.27
2018-02-07T14:22:55.739Z,35.20
2018-02-07T14:25:23.991Z,34.57
2018-02-07T14:27:51.476Z,29.17
2018-02-07T14:30:18.958Z,32.03
2018-02-07T14:32:46.439Z,29.20
2018-02-07T14:35:13.921Z,33.10
2018-02-07T14:37:41.461Z,28.43
2018-02-07T14:40:08.932Z,30.97
2018-02-07T14:42:36.409Z,30.70
2018-02-07T14:45:03.881Z,35.43
2018-02-07T14:47:31.347Z,32.80
2018-02-07T14:49:58.816Z,42.30
2018-02-07T14:52:26.310Z,31.73
2018-02-07T14:54:53.787Z,37.83
2018-02-07T14:57:21.282Z,35.70
2018-02-07T14:59:48.768Z,37.00
2018-02-07T15:02:17.018Z,33.57
2018-02-07T15:04:44.503Z,33.07
2018-02-07T15:07:12.776Z,34.97
2018-02-07T15:09:41.051Z,32.50
2018-02-07T15:12:09.299Z,36.10
2018-02-07T15:14:36.757Z,34.63
2018-02-07T15:17:04.234Z,39.03
2018-02-07T15:19:32.470Z,39.77
2018-02-07T15:21:59.949Z,32.63
2018-02-07T15:24:27.417Z,32.83
2018-02-07T15:26:54.917Z,34.03
2018-02-07T15:29:22.464Z,35.53
2018-02-07T15:31:50.706Z,34.77
2018-02-07T15:34:18.200Z,33.77
2018-02-07T15:36:46.440Z,34.50
2018-02-07T15:39:13.902Z,33.47
2018-02-07T15:41:41.388Z,36.63
2018-02-07T15:44:09.618Z,31.53
2018-02-07T15:46:37.099Z,35.33
2018-02-07T15:49:04.575Z,37.40
2018-02-07T15:51:32.822Z,37.03
2018-02-07T15:54:00.286Z,35.33
2018-02-07T15:56:27.770Z,33.63
2018-02-07T15:58:56.015Z,33.93
2018-02-07T16:01:23.543Z,34.10
2018-02-07T16:03:51.761Z,31.83
2018-02-07T16:06:19.263Z,33.07
2018-02-07T16:08:46.752Z,42.90
2018-02-07T16:11:14.231Z,36.97
2018-02-07T16:13:41.703Z,38.73
2018-02-07T16:16:09.959Z,34.23
2018-02-07T16:18:37.443Z,36.00
2018-02-07T16:21:05.688Z,41.33
2018-02-07T16:23:33.166Z,36.33
2018-02-07T16:26:00.644Z,33.80
2018-02-07T16:28:28.880Z,36.47
2018-02-07T16:30:56.351Z,38.00
2018-02-07T16:33:23.841Z,39.20
2018-02-07T16:35:51.341Z,33.40
2018-02-07T16:38:18.819Z,41.63
2018-02-07T16:40:46.305Z,30.73
2018-02-07T16:43:14.582Z,31.30
2018-02-07T16:45:42.837Z,36.67
2018-02-07T16:48:10.335Z,33.00
2018-02-07T16:50:38.572Z,35.50
2018-02-07T16:53:06.074Z,37.93
2018-02-07T16:55:33.554Z,33.23
2018-02-07T16:58:01.044Z,38.13
2018-02-07T17:00:28.521Z,33.93
2018-02-07T17:02:56.790Z,38.43
2018-02-07T17:05:24.261Z,30.10
2018-02-07T17:07:52.507Z,35.07
2018-02-07T17:10:20.006Z,30.83
2018-02-07T17:12:48.255Z,35.50
2018-02-07T17:15:15.744Z,31.73
2018-02-07T17:17:43.255Z,40.10
2018-02-07T17:20:10.744Z,36.05
2018-02-07T17:22:38.990Z,36.47
2018-02-07T17:25:06.474Z,33.07
2018-02-07T17:27:34.730Z,36.77
2018-02-07T17:30:02.214Z,36.70
2018-02-07T17:32:30.484Z,32.60
2018-02-07T17:34:57.955Z,35.57
2018-02-07T17:37:26.207Z,38.83
2018-02-07T17:39:53.689Z,44.33
2018-02-07T17:42:21.949Z,42.60
2018-02-07T17:44:49.446Z,46.20
2018-02-07T17:47:16.957Z,43.13
2018-02-07T17:49:44.440Z,38.47
2018-02-07T17:52:12.737Z,48.17
2018-02-07T17:54:40.223Z,38.33
2018-02-07T17:57:07.710Z,36.63
2018-02-07T17:59:35.216Z,45.93
2018-02-07T18:02:02.690Z,43.13
2018-02-07T18:04:30.167Z,43.73
2018-02-07T18:06:57.661Z,45.90
2018-02-07T18:09:25.925Z,45.90
2018-02-07T18:11:53.416Z,43.20
2018-02-07T18:14:20.894Z,43.33
2018-02-07T18:16:48.370Z,44.28
2018-02-07T18:19:15.861Z,40.22
2018-02-07T18:21:43.358Z,38.72
2018-02-07T18:24:10.842Z,41.53
2018-02-07T18:26:38.330Z,39.70
2018-02-07T18:29:05.813Z,41.92
2018-02-07T18:31:33.319Z,43.35
2018-02-07T18:34:00.804Z,42.40
2018-02-07T18:36:28.288Z,34.20
2018-02-07T18:38:57.521Z,40.00
2018-02-07T18:41:25.017Z,40.15
2018-02-07T18:43:52.536Z,44.08
2018-02-07T18:46:20.015Z,43.03
2018-02-07T18:48:47.493Z,41.95
2018-02-07T18:51:14.973Z,39.20
2018-02-07T18:53:43.232Z,39.22
2018-02-07T18:56:10.720Z,33.63
2018-02-07T18:58:38.201Z,40.00
2018-02-07T19:01:05.682Z,41.83
2018-02-07T19:03:33.187Z,38.65
2018-02-07T19:06:00.678Z,37.47
2018-02-07T19:08:28.685Z,39.35
2018-02-07T19:10:56.988Z,43.70
2018-02-07T19:13:25.251Z,37.75
2018-02-07T19:15:53.502Z,46.60
2018-02-07T19:18:21.025Z,48.15
2018-02-07T19:20:48.493Z,42.95
2018-02-07T19:23:15.987Z,41.88
2018-02-07T19:25:43.465Z,41.80
2018-02-07T19:28:10.944Z,39.75
2018-02-07T19:30:38.428Z,42.85
2018-02-07T19:33:05.921Z,53.40
2018-02-07T19:35:33.390Z,47.53
2018-02-07T19:38:00.884Z,41.70
2018-02-07T19:40:28.379Z,52.78
2018-02-07T19:42:55.875Z,48.33
2018-02-07T19:45:24.132Z,49.42
2018-02-07T19:47:51.602Z,51.25
2018-02-07T19:50:19.837Z,49.17
2018-02-07T19:52:47.330Z,44.63
2018-02-07T19:55:14.812Z,46.55
2018-02-07T19:57:43.079Z,53.40
2018-02-07T20:00:11.313Z,45.22
2018-02-07T20:02:39.572Z,45.63
2018-02-07T20:05:07.043Z,46.05
2018-02-07T20:07:34.536Z,45.95
2018-02-07T20:10:02.019Z,46.83
2018-02-07T20:12:30.285Z,48.03
2018-02-07T20:14:58.585Z,54.65
2018-02-07T20:17:26.055Z,52.58
2018-02-07T20:19:53.522Z,50.50
2018-02-07T20:22:21.036Z,47.47
2018-02-07T20:24:49.291Z,47.67
2018-02-07T20:27:16.784Z,42.60
2018-02-07T20:29:44.271Z,52.17
2018-02-07T20:32:11.768Z,43.83
2018-02-07T20:34:41.785Z,47.20
2018-02-07T20:37:09.318Z,43.10
2018-02-07T20:39:36.866Z,47.62
2018-02-07T20:42:04.373Z,43.65
2018-02-07T20:44:32.639Z,40.40
2018-02-07T20:47:00.141Z,38.05
2018-02-07T20:49:27.682Z,49.40
2018-02-07T20:51:55.125Z,51.13
2018-02-07T20:54:23.391Z,50.38
2018-02-07T20:56:50.883Z,48.75
2018-02-07T20:59:18.364Z,50.72
2018-02-07T21:01:45.844Z,46.67
2018-02-07T21:04:13.336Z,48.40
2018-02-07T21:06:41.608Z,49.45
2018-02-07T21:09:09.095Z,56.80
2018-02-07T21:11:36.590Z,52.93
2018-02-07T21:14:04.079Z,56.33
2018-02-07T21:16:31.586Z,55.30
2018-02-07T21:18:59.089Z,56.28
2018-02-07T21:21:26.578Z,56.20
2018-02-07T21:23:54.836Z,50.17
2018-02-07T21:26:22.325Z,52.95
2018-02-07T21:28:49.828Z,61.88
2018-02-07T21:31:17.315Z,50.07
2018-02-07T21:33:44.839Z,58.50
2018-02-07T21:36:12.319Z,57.38
2018-02-07T21:38:39.801Z,56.33
2018-02-07T21:41:08.046Z,81.73
2018-02-07T21:43:35.541Z,71.65
2018-02-07T21:46:03.793Z,61.60
2018-02-07T21:48:32.102Z,63.33
2018-02-07T21:50:59.594Z,58.00
2018-02-07T21:53:27.065Z,58.13
2018-02-07T21:55:54.564Z,56.37
2018-02-07T21:58:22.816Z,57.40
2018-02-07T22:00:50.298Z,54.00
2018-02-07T22:03:18.552Z,57.67
2018-02-07T22:05:46.024Z,67.28
2018-02-07T22:08:13.515Z,75.07
2018-02-07T22:10:41.007Z,68.97
2018-02-07T22:13:09.238Z,54.37
2018-02-07T22:15:36.733Z,58.07
2018-02-07T22:18:04.206Z,57.90
2018-02-07T22:20:31.691Z,52.73
2018-02-07T22:22:59.183Z,60.70
2018-02-07T22:25:26.662Z,58.90
2018-02-07T22:27:54.148Z,55.33
2018-02-07T22:30:21.618Z,61.40
2018-02-07T22:32:49.120Z,53.07
2018-02-07T22:35:16.622Z,58.83
2018-02-07T22:37:44.105Z,51.92
2018-02-07T22:40:12.359Z,57.30
2018-02-07T22:42:39.853Z,49.23
2018-02-07T22:45:07.335Z,51.53
2018-02-07T22:47:34.810Z,57.63
2018-02-07T22:50:02.291Z,48.90
2018-02-07T22:52:29.758Z,55.37
2018-02-07T22:54:57.255Z,47.83
2018-02-07T22:57:24.753Z,50.50
2018-02-07T22:59:52.247Z,47.57
2018-02-07T23:02:20.513Z,52.53
2018-02-07T23:04:48.776Z,59.13
2018-02-07T23:07:16.256Z,53.63
2018-02-07T23:09:44.507Z,54.50
2018-02-07T23:12:12.021Z,49.77
2018-02-07T23:14:39.509Z,63.33
2018-02-07T23:17:06.986Z,55.28
2018-02-07T23:19:37.916Z,54.70
2018-02-07T23:22:05.406Z,65.78
2018-02-07T23:24:33.727Z,53.70
2018-02-07T23:27:01.214Z,53.10
2018-02-07T23:29:28.713Z,58.03
2018-02-07T23:31:56.199Z,58.05
2018-02-07T23:34:23.686Z,62.38
2018-02-07T23:36:51.157Z,51.13
2018-02-07T23:39:18.651Z,65.97
2018-02-07T23:41:46.893Z,64.47
2018-02-07T23:44:14.370Z,57.63
2018-02-07T23:46:42.628Z,65.20
2018-02-07T23:49:10.103Z,54.93
2018-02-07T23:51:37.603Z,59.87
2018-02-07T23:54:05.088Z,63.80
2018-02-07T23:56:32.562Z,61.50
2018-02-07T23:59:00.050Z,53.97
